Time;durP1;ratioP1;P1;durP2;ratioP2;P2;SDS_P1;SDS_P2;PMS_P1;PMS_P2;Temp;Humidity;BMP_temperature;BMP_pressure;BME280_temperature;BME280_humidity;BME280_pressure;Samples;Min_cycle;Max_cycle;Signal;HPM_P1;HPM_P2
2022/10/14 00:01:52;;;;;;;24.55;21.95;;;;;;;13.75;82.28;101450.66;5030212;28;20098;-71
2022/10/14 00:04:17;;;;;;;25.83;21.60;;;;;;;13.74;82.00;101448.97;5020761;28;20032;-71
2022/10/14 00:06:42;;;;;;;27.27;20.98;;;;;;;13.74;82.06;101452.59;5012001;28;20088;-70
2022/10/14 00:09:08;;;;;;;27.08;21.20;;;;;;;13.71;81.97;101457.84;5020507;28;20034;-70
2022/10/14 00:11:35;;;;;;;24.30;20.38;;;;;;;13.71;82.21;101455.91;5030391;28;20491;-70
2022/10/14 00:14:05;;;;;;;26.50;21.33;;;;;;;13.71;82.22;101455.06;5011757;28;20042;-70
2022/10/14 00:16:33;;;;;;;24.40;21.33;;;;;;;13.73;82.30;101458.44;5024178;28;20025;-70
2022/10/14 00:18:59;;;;;;;21.77;19.42;;;;;;;13.74;82.18;101451.75;5031377;28;20030;-69
2022/10/14 00:21:25;;;;;;;27.05;20.80;;;;;;;13.73;81.99;101461.25;5031455;28;20113;-70
2022/10/14 00:23:50;;;;;;;29.20;21.73;;;;;;;13.73;82.29;101462.09;5030330;28;20108;-70
2022/10/14 00:26:21;;;;;;;25.83;21.85;;;;;;;13.74;82.31;101452.59;5029427;28;20231;-70
2022/10/14 00:28:47;;;;;;;27.95;21.45;;;;;;;13.75;82.28;101450.66;5011663;28;20504;-70
2022/10/14 00:31:13;;;;;;;28.05;20.60;;;;;;;13.73;82.25;101450.09;5020289;28;20022;-70
2022/10/14 00:33:38;;;;;;;25.25;21.38;;;;;;;13.73;82.54;101453.72;5031454;28;20079;-70
2022/10/14 00:36:05;;;;;;;24.88;21.65;;;;;;;13.73;82.33;101450.91;5029785;28;20032;-70
2022/10/14 00:38:31;;;;;;;26.42;21.42;;;;;;;13.74;82.38;101437.81;5030060;28;20499;-70
2022/10/14 00:40:57;;;;;;;29.30;20.75;;;;;;;13.75;82.12;101434.78;5030251;28;20025;-70
2022/10/14 00:43:24;;;;;;;27.02;21.50;;;;;;;13.75;82.29;101439.50;5030847;28;20045;-70
2022/10/14 00:45:49;;;;;;;26.52;22.10;;;;;;;13.77;82.12;101433.66;5031870;28;20029;-70
2022/10/14 00:48:18;;;;;;;26.05;21.40;;;;;;;13.75;82.52;101428.34;5031076;28;20052;-70
2022/10/14 00:50:45;;;;;;;30.42;22.45;;;;;;;13.73;82.37;101431.41;5031105;28;20440;-71
2022/10/14 00:53:12;;;;;;;26.50;22.00;;;;;;;13.77;81.95;101425.28;5031489;28;20025;-71
2022/10/14 00:55:39;;;;;;;27.48;22.10;;;;;;;13.74;82.13;101421.91;5030621;28;20376;-71
2022/10/14 00:58:06;;;;;;;28.52;22.55;;;;;;;13.74;82.16;101416.34;5030024;28;20172;-71
2022/10/14 01:00:31;;;;;;;28.13;22.75;;;;;;;13.74;82.21;101421.06;5029344;28;20021;-71
2022/10/14 01:02:56;;;;;;;27.50;22.38;;;;;;;13.75;82.52;101417.16;5030495;28;20108;-71
2022/10/14 01:05:27;;;;;;;30.83;23.42;;;;;;;13.74;82.22;101418.28;5027434;28;20030;-71
2022/10/14 01:08:05;;;;;;;28.08;23.00;;;;;;;13.72;82.32;101415.78;5014517;28;20056;-71
2022/10/14 01:10:42;;;;;;;29.15;23.25;;;;;;;13.74;82.80;101421.06;5031729;28;20072;-71
2022/10/14 01:13:25;;;;;;;30.02;23.73;;;;;;;13.75;82.36;101411.59;5030638;28;20052;-71
2022/10/14 01:16:08;;;;;;;31.38;24.13;;;;;;;13.74;82.37;101402.38;5028477;28;20021;-71
2022/10/14 01:18:42;;;;;;;30.50;23.50;;;;;;;13.74;82.59;101396.81;5029957;28;20032;-71
2022/10/14 01:21:16;;;;;;;25.50;22.40;;;;;;;13.74;82.36;101398.75;5031153;28;20036;-71
2022/10/14 01:24:09;;;;;;;30.25;24.27;;;;;;;13.76;82.30;101388.19;5029215;28;20396;-71
2022/10/14 01:26:53;;;;;;;30.45;24.10;;;;;;;13.72;82.61;101384.25;5030591;28;20107;-71
2022/10/14 01:29:30;;;;;;;33.13;23.63;;;;;;;13.71;82.37;101376.94;5029343;28;20061;-70
2022/10/14 01:32:02;;;;;;;30.63;24.10;;;;;;;13.70;82.35;101370.53;5031417;28;20041;-71
2022/10/14 01:34:39;;;;;;;30.10;24.00;;;;;;;13.73;82.53;101367.22;5029285;28;20083;-71
2022/10/14 01:37:13;;;;;;;29.38;24.40;;;;;;;13.70;82.71;101366.91;5034263;28;20030;-71
2022/10/14 01:39:48;;;;;;;30.75;23.75;;;;;;;13.72;82.74;101359.13;5034826;28;20037;-72
2022/10/14 01:42:19;;;;;;;31.60;23.25;;;;;;;13.71;82.44;101360.22;5034480;28;20384;-71
2022/10/14 01:44:50;;;;;;;31.77;23.77;;;;;;;13.69;82.54;101356.84;5032594;28;20461;-71
2022/10/14 01:47:19;;;;;;;32.27;24.97;;;;;;;13.67;82.88;101351.53;5032164;28;20488;-71
2022/10/14 01:49:52;;;;;;;30.35;23.95;;;;;;;13.66;83.10;101357.38;5035244;28;20021;-71
2022/10/14 01:52:26;;;;;;;30.98;25.17;;;;;;;13.68;83.17;101355.19;5033109;28;20477;-71
2022/10/14 01:54:55;;;;;;;30.48;23.98;;;;;;;13.63;82.90;101350.34;5035031;28;20358;-71
2022/10/14 01:57:24;;;;;;;32.97;24.33;;;;;;;13.65;83.20;101347.31;5032069;28;20542;-71
2022/10/14 01:59:52;;;;;;;27.92;23.45;;;;;;;13.66;82.73;101354.59;5034369;28;20029;-71
2022/10/14 02:02:17;;;;;;;34.35;24.48;;;;;;;13.68;82.56;101355.19;5031836;28;20381;-71
2022/10/14 02:04:43;;;;;;;29.30;23.40;;;;;;;13.66;83.24;101351.78;5033339;28;20036;-71
2022/10/14 02:07:24;;;;;;;31.98;24.63;;;;;;;13.68;82.92;101344.03;5033496;28;20021;-71
2022/10/14 02:10:02;;;;;;;30.58;23.90;;;;;;;13.64;83.19;101345.66;5029126;28;20034;-71
2022/10/14 02:12:36;;;;;;;30.63;23.23;;;;;;;13.66;83.02;101340.63;5020969;28;20094;-71
2022/10/14 02:15:19;;;;;;;29.00;21.95;;;;;;;13.67;83.02;101339.53;5033628;28;20392;-71
2022/10/14 02:18:10;;;;;;;31.00;23.75;;;;;;;13.66;83.03;101333.09;5032151;28;20392;-71
2022/10/14 02:20:52;;;;;;;28.77;22.60;;;;;;;13.67;83.30;101337.56;5032780;28;20061;-71
2022/10/14 02:23:26;;;;;;;29.52;23.50;;;;;;;13.65;83.39;101339.78;5032847;28;20033;-71
2022/10/14 02:25:53;;;;;;;30.98;23.02;;;;;;;13.63;83.31;101336.41;5012991;28;20025;-71
2022/10/14 02:28:22;;;;;;;30.33;23.38;;;;;;;13.64;83.42;101326.13;5014692;28;20076;-71
2022/10/14 02:30:56;;;;;;;30.13;22.92;;;;;;;13.67;83.57;101331.16;5014795;28;20133;-72
2022/10/14 02:33:26;;;;;;;30.13;23.60;;;;;;;13.68;83.47;101327.28;5031780;28;20061;-72
2022/10/14 02:35:53;;;;;;;31.20;22.52;;;;;;;13.68;83.27;101333.69;5033079;28;20033;-71
2022/10/14 02:38:19;;;;;;;29.63;23.52;;;;;;;13.67;83.75;101329.19;5034214;28;20048;-71
2022/10/14 02:40:48;;;;;;;30.80;23.55;;;;;;;13.68;83.52;101330.06;5032406;28;20052;-71
2022/10/14 02:43:14;;;;;;;31.75;23.42;;;;;;;13.67;83.64;101331.16;5033462;28;20374;-71
2022/10/14 02:45:42;;;;;;;31.88;22.65;;;;;;;13.65;83.63;101331.44;5031736;28;20028;-71
2022/10/14 02:48:08;;;;;;;34.38;24.70;;;;;;;13.65;83.35;101327.81;5030983;28;20064;-71
2022/10/14 02:50:34;;;;;;;35.90;24.42;;;;;;;13.65;83.70;101317.47;5032841;28;20040;-72
2022/10/14 02:52:59;;;;;;;34.63;24.35;;;;;;;13.67;83.56;101320.84;5032376;28;20113;-71
2022/10/14 02:55:24;;;;;;;38.38;24.42;;;;;;;13.65;84.31;101316.66;5032873;28;20036;-72
2022/10/14 02:57:49;;;;;;;34.17;22.75;;;;;;;13.66;83.81;101309.94;5032351;28;20536;-72
2022/10/14 03:00:15;;;;;;;35.78;23.63;;;;;;;13.66;83.75;101315.53;5031925;28;20021;-70
2022/10/14 03:02:41;;;;;;;32.97;22.52;;;;;;;13.69;83.98;101312.22;5021763;28;20405;-70
2022/10/14 03:05:06;;;;;;;33.50;22.45;;;;;;;13.68;84.12;101304.97;5032888;28;20117;-71
2022/10/14 03:07:32;;;;;;;32.00;22.80;;;;;;;13.67;83.95;101303.25;5032142;28;20018;-70
2022/10/14 03:09:57;;;;;;;33.38;23.00;;;;;;;13.67;84.54;101298.53;5033514;28;20064;-71
2022/10/14 03:12:23;;;;;;;36.78;22.45;;;;;;;13.69;84.11;101299.13;5031994;28;20048;-71
2022/10/14 03:14:48;;;;;;;29.90;22.38;;;;;;;13.72;84.25;101297.75;5031472;28;20044;-71
2022/10/14 03:17:14;;;;;;;33.30;21.92;;;;;;;13.71;83.70;101294.09;5027925;28;20438;-70
2022/10/14 03:19:40;;;;;;;31.27;21.95;;;;;;;13.69;84.08;101296.31;5031496;28;20032;-71
2022/10/14 03:22:05;;;;;;;29.85;21.90;;;;;;;13.71;83.95;101287.69;5030853;28;20057;-70
2022/10/14 03:24:30;;;;;;;30.98;21.75;;;;;;;13.70;84.35;101288.78;5033137;28;20060;-70
2022/10/14 03:26:55;;;;;;;29.08;20.33;;;;;;;13.71;84.19;101291.31;5032249;28;20022;-70
2022/10/14 03:29:21;;;;;;;31.67;21.27;;;;;;;13.69;84.11;101289.91;5032377;28;20037;-70
2022/10/14 03:31:46;;;;;;;28.08;20.33;;;;;;;13.70;84.23;101288.78;5030161;28;20021;-71
2022/10/14 03:34:11;;;;;;;32.80;21.13;;;;;;;13.69;84.59;101274.00;5030660;28;20083;-71
2022/10/14 03:36:37;;;;;;;29.63;21.00;;;;;;;13.70;84.53;101275.69;5031021;28;20104;-70
2022/10/14 03:39:02;;;;;;;27.17;19.30;;;;;;;13.70;84.24;101270.09;5032449;28;20018;-71
2022/10/14 03:41:27;;;;;;;28.90;20.40;;;;;;;13.70;84.70;101272.91;5032468;28;20041;-71
2022/10/14 03:43:52;;;;;;;27.85;19.52;;;;;;;13.72;84.49;101269.84;5032698;28;20071;-71
2022/10/14 03:46:18;;;;;;;30.00;19.63;;;;;;;13.72;84.28;101269.84;5031847;28;20575;-71
2022/10/14 03:48:44;;;;;;;29.85;20.30;;;;;;;13.72;84.57;101267.06;5030847;28;20447;-71
2022/10/14 03:51:09;;;;;;;23.50;19.00;;;;;;;13.71;84.34;101259.78;5031939;28;20042;-71
2022/10/14 03:53:34;;;;;;;27.33;19.52;;;;;;;13.72;84.63;101258.69;5030209;28;20037;-71
2022/10/14 03:55:59;;;;;;;24.23;18.70;;;;;;;13.73;83.93;101257.59;5032430;28;20036;-71
2022/10/14 03:58:25;;;;;;;26.42;18.73;;;;;;;13.74;84.28;101256.47;5031089;28;20381;-71
2022/10/14 04:00:50;;;;;;;26.67;19.30;;;;;;;13.72;84.75;101255.91;5031414;28;20053;-71
2022/10/14 04:03:15;;;;;;;26.10;19.20;;;;;;;13.73;84.48;101261.22;5031067;28;20030;-71
2022/10/14 04:05:41;;;;;;;26.65;18.15;;;;;;;13.74;84.79;101253.69;5029264;28;20029;-70
2022/10/14 04:08:06;;;;;;;23.63;18.27;;;;;;;13.74;84.21;101253.69;5032304;28;20048;-71
2022/10/14 04:10:32;;;;;;;21.38;17.33;;;;;;;13.74;84.81;101248.94;5029844;28;20358;-71
2022/10/14 04:12:57;;;;;;;21.65;16.95;;;;;;;13.74;84.75;101253.69;5030474;28;20457;-71
2022/10/14 04:15:23;;;;;;;19.27;16.80;;;;;;;13.72;84.72;101251.16;5030732;28;20041;-72
2022/10/14 04:17:48;;;;;;;24.50;17.33;;;;;;;13.72;84.62;101251.16;5031520;28;20037;-72
2022/10/14 04:20:14;;;;;;;22.67;17.33;;;;;;;13.75;84.51;101249.78;5031791;28;20060;-71
2022/10/14 04:22:40;;;;;;;23.73;16.42;;;;;;;13.74;84.63;101248.09;5030907;28;20389;-72
2022/10/14 04:25:06;;;;;;;22.80;16.65;;;;;;;13.74;84.61;101248.94;5031523;28;20034;-71
2022/10/14 04:27:31;;;;;;;20.38;16.23;;;;;;;13.72;84.70;101240.00;5028077;28;20029;-71
2022/10/14 04:29:57;;;;;;;20.88;15.93;;;;;;;13.75;85.05;101238.63;5030890;28;20040;-71
2022/10/14 04:32:22;;;;;;;19.23;15.48;;;;;;;13.75;84.97;101233.91;5029883;28;20034;-71
2022/10/14 04:34:47;;;;;;;18.27;15.27;;;;;;;13.72;84.97;101237.22;5030139;28;20025;-71
2022/10/14 04:37:12;;;;;;;17.80;15.65;;;;;;;13.75;84.85;101236.69;5031521;28;20033;-71
2022/10/14 04:39:38;;;;;;;18.10;15.40;;;;;;;13.74;84.64;101229.41;5031449;28;20040;-71
2022/10/14 04:42:03;;;;;;;21.80;16.67;;;;;;;13.75;84.66;101230.25;5029689;28;20026;-71
2022/10/14 04:44:28;;;;;;;20.17;15.95;;;;;;;13.76;85.05;101229.16;5030356;28;20029;-71
2022/10/14 04:46:54;;;;;;;20.55;16.33;;;;;;;13.75;85.21;101230.25;5031658;28;20040;-71
2022/10/14 04:49:19;;;;;;;20.50;16.67;;;;;;;13.74;84.96;101225.78;5029744;28;20140;-71
2022/10/14 04:51:44;;;;;;;19.95;16.67;;;;;;;13.73;84.93;101229.69;5031304;28;20038;-71
2022/10/14 04:54:10;;;;;;;18.10;15.48;;;;;;;13.75;85.10;101222.75;5029208;28;20030;-71
2022/10/14 04:56:36;;;;;;;19.08;15.55;;;;;;;13.75;85.22;101217.16;5030943;28;20022;-71
2022/10/14 04:59:01;;;;;;;22.73;15.80;;;;;;;13.71;85.18;101215.16;5031838;28;20025;-71
2022/10/14 05:01:26;;;;;;;18.15;15.27;;;;;;;13.75;84.73;101219.09;5027812;28;20079;-70
2022/10/14 05:03:52;;;;;;;17.88;14.93;;;;;;;13.72;85.13;101219.66;5026594;28;20027;-70
2022/10/14 05:06:17;;;;;;;17.77;14.25;;;;;;;13.72;85.20;101222.44;5028769;28;20368;-71
2022/10/14 05:08:43;;;;;;;18.05;13.02;;;;;;;13.74;85.23;101209.03;5024900;28;20037;-70
2022/10/14 05:11:08;;;;;;;15.10;13.50;;;;;;;13.74;85.32;101206.25;5033009;28;20492;-70
2022/10/14 05:13:33;;;;;;;14.35;12.82;;;;;;;13.73;85.14;101211.00;5032315;28;20131;-70
2022/10/14 05:16:00;;;;;;;14.27;12.18;;;;;;;13.72;85.13;101203.75;5030780;28;20034;-70
2022/10/14 05:18:26;;;;;;;17.88;12.52;;;;;;;13.72;85.74;101200.94;5026760;28;20033;-70
2022/10/14 05:20:51;;;;;;;13.48;12.05;;;;;;;13.74;85.09;101190.34;5028605;28;20035;-68
2022/10/14 05:23:17;;;;;;;15.15;12.40;;;;;;;13.71;85.46;101196.47;5024470;28;20037;-71
2022/10/14 05:25:42;;;;;;;15.50;10.73;;;;;;;13.72;85.34;101194.53;5034164;28;20388;-69
2022/10/14 05:28:07;;;;;;;13.73;12.32;;;;;;;13.71;85.52;101188.09;5032882;28;20499;-69
2022/10/14 05:30:33;;;;;;;15.25;11.80;;;;;;;13.71;85.64;101181.69;5031116;28;20025;-70
2022/10/14 05:32:58;;;;;;;13.70;11.25;;;;;;;13.73;85.45;101177.53;5027894;28;20037;-65
2022/10/14 05:35:23;;;;;;;12.52;10.68;;;;;;;13.72;85.89;101161.06;5028544;28;20087;-71
2022/10/14 05:37:54;;;;;;;12.57;10.35;;;;;;;13.72;85.98;101169.44;5034600;28;20029;-71
2022/10/14 05:40:19;;;;;;;10.85;9.82;;;;;;;13.73;85.63;101171.09;5032108;28;20033;-71
2022/10/14 05:42:44;;;;;;;11.48;10.27;;;;;;;13.73;86.03;101174.72;5032660;28;20041;-71
2022/10/14 05:45:10;;;;;;;10.32;9.32;;;;;;;13.73;85.77;101165.53;5032714;28;20079;-71
2022/10/14 05:47:35;;;;;;;11.60;9.70;;;;;;;13.71;86.11;101160.19;5032329;28;20130;-71
2022/10/14 05:50:02;;;;;;;12.43;9.52;;;;;;;13.71;86.30;101156.56;5022621;28;20381;-72
2022/10/14 05:52:28;;;;;;;10.38;9.27;;;;;;;13.74;85.66;101154.09;5017167;28;20124;-70
2022/10/14 05:54:54;;;;;;;10.13;8.68;;;;;;;13.74;85.75;101150.47;5024992;28;20029;-68
2022/10/14 05:57:19;;;;;;;11.30;9.40;;;;;;;13.75;85.87;101153.00;5029916;28;20369;-71
2022/10/14 05:59:44;;;;;;;10.55;9.32;;;;;;;13.74;85.75;101147.66;5033778;28;20036;-71
2022/10/14 06:02:10;;;;;;;11.38;9.88;;;;;;;13.76;85.72;101162.22;5030054;28;20122;-71
2022/10/14 06:04:39;;;;;;;10.55;9.35;;;;;;;13.77;85.92;101149.94;5030502;28;20014;-70
2022/10/14 06:07:05;;;;;;;10.90;9.50;;;;;;;13.77;85.91;101157.47;5027876;28;20432;-71
2022/10/14 06:09:30;;;;;;;10.45;9.32;;;;;;;13.76;85.95;101162.22;5032993;28;20037;-71
2022/10/14 06:11:55;;;;;;;9.88;8.70;;;;;;;13.74;86.15;101150.47;5032904;28;20108;-70
2022/10/14 06:14:21;;;;;;;11.93;9.95;;;;;;;13.73;86.08;101151.56;5032081;28;20495;-71
2022/10/14 06:16:48;;;;;;;11.32;9.32;;;;;;;13.73;86.34;101148.78;5033349;28;20078;-72
2022/10/14 06:19:14;;;;;;;10.27;9.27;;;;;;;13.75;86.20;101147.41;5034131;28;20112;-71
2022/10/14 06:21:39;;;;;;;10.27;9.07;;;;;;;13.77;85.89;101130.41;5028414;28;20171;-72
2022/10/14 06:24:05;;;;;;;11.07;9.18;;;;;;;13.78;86.25;101139.59;5032326;28;20392;-70
2022/10/14 06:26:30;;;;;;;9.90;8.90;;;;;;;13.78;85.85;101136.81;5027328;28;20029;-71
2022/10/14 06:28:55;;;;;;;10.32;8.80;;;;;;;13.78;86.19;101137.66;5030846;28;20029;-71
2022/10/14 06:31:21;;;;;;;9.63;8.50;;;;;;;13.78;86.10;101148.81;5029764;28;20026;-69
2022/10/14 06:33:47;;;;;;;12.23;8.95;;;;;;;13.78;86.09;101136.81;5031993;28;20024;-69
2022/10/14 06:36:12;;;;;;;9.77;8.50;;;;;;;13.79;85.77;101138.50;5028889;28;20037;-70
2022/10/14 06:38:37;;;;;;;9.77;8.88;;;;;;;13.78;85.89;101134.88;5027398;28;20021;-69
2022/10/14 06:41:03;;;;;;;11.32;9.20;;;;;;;13.82;85.77;101129.59;5033217;28;20052;-69
2022/10/14 06:43:29;;;;;;;9.82;7.85;;;;;;;13.87;85.22;101136.06;5023789;28;20354;-70
2022/10/14 06:45:56;;;;;;;11.40;9.13;;;;;;;13.82;85.72;101133.22;5023175;28;20127;-70
2022/10/14 06:48:21;;;;;;;12.45;9.63;;;;;;;13.84;85.95;101136.59;5025443;28;20112;-70
2022/10/14 06:50:46;;;;;;;10.82;9.73;;;;;;;13.83;85.81;101134.91;5029358;28;20136;-69
2022/10/14 06:53:12;;;;;;;12.25;9.20;;;;;;;13.82;85.95;101122.06;5027622;28;20033;-69
2022/10/14 06:55:37;;;;;;;11.27;9.45;;;;;;;13.82;86.15;101127.66;5011099;28;20426;-69
2022/10/14 06:58:02;;;;;;;11.73;9.45;;;;;;;13.82;86.07;101127.66;5018138;28;20546;-68
2022/10/14 07:00:28;;;;;;;9.80;8.75;;;;;;;13.82;85.96;101126.81;5031823;28;20433;-69
2022/10/14 07:02:53;;;;;;;10.55;8.52;;;;;;;13.83;86.11;101118.16;5032195;28;20091;-74
2022/10/14 07:05:18;;;;;;;10.00;8.98;;;;;;;13.80;85.92;101118.72;5032524;28;20037;-72
2022/10/14 07:07:43;;;;;;;10.30;9.20;;;;;;;13.81;86.12;101108.41;5031246;28;20025;-72
2022/10/14 07:10:09;;;;;;;10.73;8.85;;;;;;;13.81;86.06;101106.44;5031350;28;20416;-73
2022/10/14 07:12:34;;;;;;;11.13;9.50;;;;;;;13.83;86.25;101103.38;5032437;28;20136;-71
2022/10/14 07:14:59;;;;;;;10.88;9.45;;;;;;;13.84;86.28;101105.91;5030981;28;20100;-71
2022/10/14 07:17:25;;;;;;;10.48;9.02;;;;;;;13.86;86.23;101106.47;5032611;28;20594;-71
2022/10/14 07:19:50;;;;;;;10.57;8.85;;;;;;;13.84;86.56;101108.69;5031073;28;20029;-71
2022/10/14 07:22:16;;;;;;;10.02;9.02;;;;;;;13.83;86.54;101114.53;5031072;28;20025;-71
2022/10/14 07:24:42;;;;;;;10.88;8.73;;;;;;;13.81;86.82;101125.97;5031666;28;20040;-71
2022/10/14 07:27:08;;;;;;;9.43;8.48;;;;;;;13.82;86.51;101124.00;5029567;28;20026;-73
2022/10/14 07:29:33;;;;;;;11.00;8.77;;;;;;;13.83;86.61;101126.53;5031728;28;20552;-72
2022/10/14 07:31:59;;;;;;;10.05;9.00;;;;;;;13.83;86.86;101129.31;5030834;28;20104;-70
2022/10/14 07:34:24;;;;;;;11.73;9.48;;;;;;;13.84;86.72;101130.19;5031901;28;20064;-70
2022/10/14 07:36:49;;;;;;;10.13;9.13;;;;;;;13.85;86.67;101132.69;5030863;28;20029;-70
2022/10/14 07:39:14;;;;;;;10.10;8.88;;;;;;;13.86;86.39;101128.78;5032088;28;20029;-70
2022/10/14 07:41:40;;;;;;;9.48;8.57;;;;;;;13.87;86.29;101121.25;5028789;28;20404;-67
2022/10/14 07:44:08;;;;;;;10.73;8.48;;;;;;;13.88;86.69;101122.97;5016253;28;20030;-70
2022/10/14 07:46:37;;;;;;;11.20;9.10;;;;;;;13.86;86.81;101111.22;5014754;28;20029;-70
2022/10/14 07:49:11;;;;;;;12.07;9.20;;;;;;;13.87;86.78;101122.13;5021567;28;20469;-69
2022/10/14 07:51:38;;;;;;;11.05;9.02;;;;;;;13.88;86.72;101121.00;5031562;28;20021;-70
2022/10/14 07:54:08;;;;;;;9.93;8.93;;;;;;;13.87;86.96;101110.09;5031182;28;20026;-69
2022/10/14 07:56:34;;;;;;;10.45;9.40;;;;;;;13.88;86.57;101122.97;5030701;28;20029;-69
2022/10/14 07:59:00;;;;;;;9.60;8.45;;;;;;;13.88;86.54;101120.16;5026595;28;20442;-71
2022/10/14 08:01:25;;;;;;;12.90;9.75;;;;;;;13.88;86.73;101111.78;5024427;28;20068;-70
2022/10/14 08:03:51;;;;;;;10.77;9.43;;;;;;;13.87;86.92;101113.75;5012121;28;20030;-72
2022/10/14 08:06:17;;;;;;;9.93;8.90;;;;;;;13.89;87.21;101105.09;5017611;28;20377;-70
2022/10/14 08:08:42;;;;;;;14.57;10.35;;;;;;;13.89;86.94;101105.94;5028639;28;20025;-70
2022/10/14 08:11:38;;;;;;;11.00;9.48;;;;;;;13.95;86.72;101112.38;5030050;28;20480;-71
2022/10/14 08:14:04;;;;;;;11.30;9.43;;;;;;;13.94;86.92;101102.34;5013275;28;20049;-71
2022/10/14 08:16:31;;;;;;;10.45;9.15;;;;;;;13.95;86.64;101110.44;5024962;28;20076;-70
2022/10/14 08:19:03;;;;;;;10.30;8.75;;;;;;;13.98;87.07;101112.69;5031434;28;20038;-70
2022/10/14 08:21:28;;;;;;;11.80;9.52;;;;;;;14.02;86.92;101104.59;5020284;28;20080;-70
2022/10/14 08:23:54;;;;;;;10.25;8.77;;;;;;;14.00;86.43;101104.88;5012478;28;20018;-73
2022/10/14 08:26:32;;;;;;;11.68;9.35;;;;;;;14.02;86.95;101092.59;5015083;28;20075;-70
2022/10/14 08:29:00;;;;;;;10.70;9.07;;;;;;;14.02;87.15;101093.44;5017125;28;20030;-71
2022/10/14 08:31:25;;;;;;;10.25;9.00;;;;;;;14.05;86.74;101089.28;5029600;28;20442;-70
2022/10/14 08:33:50;;;;;;;11.55;9.27;;;;;;;14.04;86.85;101095.97;5027566;28;20049;-71
2022/10/14 08:36:17;;;;;;;12.68;9.90;;;;;;;14.06;86.93;101104.91;5028898;28;20037;-72
2022/10/14 08:38:43;;;;;;;10.52;9.20;;;;;;;14.07;86.68;101095.41;5018450;28;20026;-71
2022/10/14 08:41:11;;;;;;;10.68;9.57;;;;;;;14.07;86.66;101101.88;5020708;28;20056;-72
2022/10/14 08:43:41;;;;;;;12.48;9.38;;;;;;;14.10;87.04;101092.94;5026624;28;20025;-71
2022/10/14 08:46:22;;;;;;;10.50;9.00;;;;;;;14.12;86.95;101093.50;5025364;28;20045;-73
2022/10/14 08:48:53;;;;;;;10.93;9.43;;;;;;;14.13;86.37;101083.19;5028338;28;20107;-70
2022/10/14 08:51:20;;;;;;;14.23;9.88;;;;;;;14.14;86.72;101094.06;5028583;28;20026;-69
2022/10/14 08:53:55;;;;;;;11.00;9.82;;;;;;;14.14;86.58;101088.47;5026378;28;20052;-71
2022/10/14 08:56:22;;;;;;;12.48;9.60;;;;;;;14.16;86.86;101091.84;5015604;28;20470;-71
2022/10/14 08:58:50;;;;;;;12.13;10.18;;;;;;;14.16;86.66;101091.03;5027053;28;20144;-69
2022/10/14 09:01:32;;;;;;;11.95;9.68;;;;;;;14.17;86.61;101087.09;5031094;28;20072;-69
2022/10/14 09:04:12;;;;;;;11.77;9.00;;;;;;;14.18;86.79;101086.00;5028409;28;20107;-69
2022/10/14 09:06:44;;;;;;;12.60;10.27;;;;;;;14.17;86.80;101089.91;5024149;28;20787;-66
2022/10/14 09:09:15;;;;;;;;;;;;;;;14.27;86.09;101089.13;5022427;28;20049;-67
2022/10/14 09:11:44;;;;;;;10.73;9.68;;;;;;;14.20;86.73;101081.00;5025406;28;20313;-69
2022/10/14 09:14:17;;;;;;;12.30;9.40;;;;;;;14.20;86.61;101075.41;5018677;28;20046;-66
2022/10/14 09:16:44;;;;;;;10.27;9.00;;;;;;;14.23;86.74;101083.25;5029780;28;20036;-71
2022/10/14 09:19:39;;;;;;;12.38;9.82;;;;;;;14.25;87.03;101081.84;5030830;28;20029;-70
2022/10/14 09:22:17;;;;;;;12.40;8.93;;;;;;;14.30;86.83;101071.81;5016284;28;20053;-70
2022/10/14 09:24:47;;;;;;;11.13;9.30;;;;;;;14.28;86.47;101083.25;5028330;28;20072;-70
2022/10/14 09:27:20;;;;;;;10.15;9.13;;;;;;;14.33;86.81;101079.66;5027879;28;20526;-70
2022/10/14 09:29:50;;;;;;;11.27;9.23;;;;;;;14.31;87.05;101074.34;5030316;28;20492;-70
2022/10/14 09:32:40;;;;;;;10.25;9.25;;;;;;;14.36;87.13;101065.16;5030636;28;20041;-70
2022/10/14 09:35:29;;;;;;;10.73;8.13;;;;;;;14.37;86.66;101067.66;5018800;28;20084;-63
2022/10/14 09:37:54;;;;;;;10.45;9.05;;;;;;;14.36;87.03;101063.19;5024239;28;20057;-69
2022/10/14 09:40:29;;;;;;;11.55;8.50;;;;;;;14.36;87.14;101068.78;5030374;28;20164;-69
2022/10/14 09:43:02;;;;;;;8.98;7.95;;;;;;;14.34;86.81;101059.81;5029633;28;20025;-69
2022/10/14 09:45:44;;;;;;;11.52;8.55;;;;;;;14.34;87.30;101065.41;5021055;28;20049;-69
2022/10/14 09:48:15;;;;;;;8.73;7.57;;;;;;;14.37;87.33;101067.66;5030635;28;20120;-69
2022/10/14 09:50:47;;;;;;;10.52;8.13;;;;;;;14.38;87.58;101066.56;5026631;28;20025;-69
2022/10/14 09:53:28;;;;;;;9.10;7.82;;;;;;;14.38;87.41;101066.56;5023471;28;20030;-70
2022/10/14 09:55:57;;;;;;;9.23;8.30;;;;;;;14.36;87.46;101065.97;5009755;28;20106;-70
2022/10/14 09:58:34;;;;;;;9.45;8.15;;;;;;;14.36;88.02;101060.41;5013546;28;20037;-69
2022/10/14 10:01:01;;;;;;;12.05;8.23;;;;;;;14.39;88.23;101053.44;5016211;28;20077;-69
2022/10/14 10:03:31;;;;;;;8.75;7.85;;;;;;;14.40;88.01;101055.09;5031725;28;20469;-69
2022/10/14 10:06:07;;;;;;;9.43;8.43;;;;;;;14.41;88.27;101049.22;5030261;28;20075;-68
2022/10/14 10:08:36;;;;;;;10.88;7.53;;;;;;;14.42;88.08;101058.44;5030979;28;20033;-67
2022/10/14 10:11:12;;;;;;;9.68;8.68;;;;;;;14.41;88.56;101048.41;5033479;28;20072;-66
2022/10/14 10:13:43;;;;;;;9.75;8.48;;;;;;;14.40;88.43;101047.56;5032585;28;20046;-69
2022/10/14 10:16:30;;;;;;;9.90;8.90;;;;;;;14.43;88.78;101051.78;5030778;28;20025;-68
2022/10/14 10:18:56;;;;;;;11.13;9.27;;;;;;;14.42;88.60;101036.97;5026345;28;20091;-71
2022/10/14 10:21:25;;;;;;;10.80;9.07;;;;;;;14.42;88.71;101036.09;5026242;28;20049;-71
2022/10/14 10:24:21;;;;;;;12.13;9.65;;;;;;;14.46;88.91;101040.91;5020073;28;20144;-72
2022/10/14 10:26:47;;;;;;;9.50;8.60;;;;;;;14.45;88.38;101032.78;5028893;28;20087;-71
2022/10/14 10:29:24;;;;;;;11.20;8.85;;;;;;;14.47;88.99;101031.41;5032471;28;20370;-72
2022/10/14 10:32:02;;;;;;;10.25;9.15;;;;;;;14.49;88.95;101033.94;5023381;28;20026;-69
2022/10/14 10:34:46;;;;;;;10.43;9.43;;;;;;;14.49;88.88;101031.97;5013793;28;20048;-69
2022/10/14 10:37:39;;;;;;;12.32;9.52;;;;;;;14.51;88.70;101033.69;5023858;28;20087;-66
2022/10/14 10:40:16;;;;;;;11.32;9.30;;;;;;;14.51;89.56;101026.13;5029262;28;20148;-67
2022/10/14 10:43:15;;;;;;;10.50;9.30;;;;;;;14.55;89.13;101021.69;5026025;28;20029;-69
2022/10/14 10:46:16;;;;;;;10.35;9.15;;;;;;;14.55;89.19;101016.09;5021234;28;20052;-70
2022/10/14 10:49:21;;;;;;;10.68;8.63;;;;;;;14.56;89.52;101019.72;5032809;28;20037;-70
2022/10/14 10:51:56;;;;;;;8.32;7.55;;;;;;;14.57;89.25;101013.84;4988075;28;20114;-72
2022/10/14 10:54:39;;;;;;;10.55;8.40;;;;;;;14.56;89.95;101016.91;5025988;28;20071;-71
2022/10/14 10:57:34;;;;;;;9.98;8.35;;;;;;;14.56;90.08;101019.72;5031920;28;20033;-71
2022/10/14 11:00:09;;;;;;;8.15;7.35;;;;;;;14.56;90.19;101016.91;5026560;28;20041;-71
2022/10/14 11:03:08;;;;;;;8.55;7.40;;;;;;;14.59;90.53;101013.59;5032619;28;20021;-72
2022/10/14 11:12:30;;;;;;;8.95;6.70;;;;;;;14.60;90.08;101002.13;5027681;28;20165;-68
2022/10/14 11:15:10;;;;;;;7.65;7.00;;;;;;;14.61;89.84;100997.38;5019481;28;20568;-74
2022/10/14 11:18:01;;;;;;;8.38;7.57;;;;;;;14.64;90.26;101000.44;5027004;28;20045;-69
2022/10/14 11:20:45;;;;;;;8.02;7.15;;;;;;;14.66;90.34;100997.41;5030880;28;20040;-76
2022/10/14 11:23:42;;;;;;;9.70;8.80;;;;;;;14.67;90.13;100993.47;5027322;28;20116;-70
2022/10/14 11:26:59;;;;;;;9.70;8.80;;;;;;;14.70;90.11;100998.53;5029252;28;20460;-71
2022/10/14 11:29:39;;;;;;;10.68;9.68;;;;;;;14.67;90.13;100993.47;5009939;28;20628;-72
2022/10/14 11:32:21;;;;;;;11.25;10.18;;;;;;;14.67;90.16;100982.31;5025701;28;20017;-68
2022/10/14 11:35:00;;;;;;;11.40;10.40;;;;;;;14.69;90.54;100985.66;5024192;28;20520;-71